Airport ICAO


20:18 UTC

23°C


An affordable passengers' Moving Map for your aircraft. Made for the iPad and the iPhone
More information here

EGLL Heathrow


London UNITED KINGDOM   VFR


METAR EGLL 161950Z AUTO 28012KT 9999 NCD 23/14 Q1012 NOSIG 0h28min

TAF EGLL 161701Z 1618/1724 26006KT CAVOK 3h17min





NOTAMS

OPEN